Airfield :
LOGIN :

Register | Disclaimer

   EN    FR    IT 

 










Legend :    VFR   Marginal VFR   IFR   Intensive IFR   Very Intensive IFR
Visi :
Ceiling :
>= 8 km
>= 3000ft
5 to 8 km
1000 to 3000 ft
1500m to 5 km
500 to 1000 ft
800 to 1500m
200 to 500 ft
< 800m
< 200 ft
Symbols :   Thunderstorms  Fog  Heavy snow  Heavy precipitations  Wind > 20 kt
SIGMETs :     Misc.  Thunderstorms  Icing  Turbulence  Mountain Waves  Volcanic Ashes






- Airport Elevation : 512 ft
- IATA code : URO


LFOP - Rouen Vallée de Seine

CURRENT METAR :
  • 250600Z AUTO 28012KT 250V310 9999 -DZ BKN011 BKN018 BKN031 07/06 Q1007

EXPIRED METARs :
  • 250530Z AUTO 27010KT 9999 SCT016 OVC040 07/05 Q1007
  • 250500Z AUTO 28012KT 9999 SCT015 OVC038 07/05 Q1007
  • 250430Z AUTO 28013KT 9999 BKN019 OVC038 07/05 Q1008
  • 250400Z AUTO 28008KT 250V320 9999 FEW018 BKN023 BKN030 07/05 Q1007
  • 250330Z AUTO 27010KT 9999 FEW017 BKN023 BKN029 08/06 Q1008

TAF TAF LFOP
Valid from the 25 at 06:00 until the 26 at 06:00 UTC


250500Z 2506/2606 26013KT 9999 BKN025
TEMPO 2506/2510 26015G25KT 4000 SHRA BKN012 BKN025TCU
TEMPO 2510/2606 26018G35KT 3000 SHRA BKN020CB
PROB40
TEMPO 2513/2606 25025G45KT 1200 TSRAGS BKN015CB
ATIS : +33 2 35 80 80 34
Met : +33 2 32 86 52 80



MET'MAP, your aeronautical weather chart ! - Copyright ORBIFLY December 2007 - Disclaimer

ORBIFLY MET'MAP TEAM :

Programming & Development : Alexandra Zaïnal
Concept & original design : Baudouin d'Aumeries
Assistance for programming : Marc-Olivier Méhu
Technical & hardware support : Manuel Goepfert

Contact : metmap@orbifly.com




SOURCES & CREDITS :

   NOAA